Time;durP1;ratioP1;P1;durP2;ratioP2;P2;SDS_P1;SDS_P2;PMS_P1;PMS_P2;Temp;Humidity;BMP_temperature;BMP_pressure;BME280_temperature;BME280_humidity;BME280_pressure;Samples;Min_cycle;Max_cycle;Signal;HPM_P1;HPM_P2
2023/10/29 00:01:06;;;;;;;7.37;4.53;;;10.70;99.90;;;;;;5115986;28;20962;-65
2023/10/29 00:03:32;;;;;;;6.83;3.50;;;10.70;99.90;;;;;;5115039;28;20436;-65
2023/10/29 00:05:59;;;;;;;6.33;4.30;;;10.70;99.90;;;;;;5114864;28;20448;-64
2023/10/29 00:08:27;;;;;;;8.23;4.47;;;10.70;99.90;;;;;;5114703;28;20927;-64
2023/10/29 00:10:54;;;;;;;6.63;3.90;;;10.70;99.90;;;;;;5114695;28;20471;-63
2023/10/29 00:13:23;;;;;;;10.07;4.00;;;10.80;99.90;;;;;;5114574;28;20430;-63
2023/10/29 00:15:49;;;;;;;5.63;3.63;;;10.70;99.90;;;;;;5114989;28;20457;-65
2023/10/29 00:18:17;;;;;;;5.20;4.10;;;10.80;99.90;;;;;;5115028;28;20484;-64
2023/10/29 00:20:44;;;;;;;6.27;4.17;;;10.80;99.90;;;;;;5116076;28;20445;-63
2023/10/29 00:23:11;;;;;;;13.40;4.10;;;10.80;99.90;;;;;;5115291;28;20469;-64
2023/10/29 00:25:39;;;;;;;5.37;3.90;;;10.80;99.90;;;;;;5114909;28;20499;-66
2023/10/29 00:28:07;;;;;;;6.50;3.70;;;10.70;99.90;;;;;;5116604;28;20966;-64
2023/10/29 00:30:34;;;;;;;5.10;3.50;;;10.80;99.90;;;;;;5120053;28;20460;-65
2023/10/29 00:33:01;;;;;;;6.37;3.47;;;10.80;99.90;;;;;;5119208;28;20524;-65
2023/10/29 00:35:27;;;;;;;4.63;3.63;;;10.70;99.90;;;;;;5118748;28;20465;-65
2023/10/29 00:37:54;;;;;;;5.97;2.80;;;10.80;99.90;;;;;;5119049;28;20480;-66
2023/10/29 00:40:21;;;;;;;5.20;3.10;;;10.80;99.90;;;;;;5119013;28;20437;-65
2023/10/29 00:42:50;;;;;;;5.23;2.77;;;10.80;99.90;;;;;;5118973;28;20898;-64
2023/10/29 00:45:16;;;;;;;3.60;2.83;;;10.80;99.90;;;;;;5118853;28;20476;-64
2023/10/29 00:47:43;;;;;;;5.07;2.97;;;10.80;99.90;;;;;;5119203;28;20805;-66
2023/10/29 00:50:10;;;;;;;2.80;2.60;;;10.80;99.90;;;;;;5119736;28;20445;-66
2023/10/29 00:52:37;;;;;;;3.13;1.93;;;10.80;99.90;;;;;;5119160;28;20441;-65
2023/10/29 00:55:05;;;;;;;5.50;2.70;;;10.80;99.90;;;;;;5118276;28;20461;-66
2023/10/29 00:57:31;;;;;;;4.60;2.60;;;10.80;99.90;;;;;;5118124;28;20483;-66
2023/10/29 01:00:00;;;;;;;8.03;2.93;;;10.80;99.90;;;;;;5118750;28;20441;-65
2023/10/29 01:02:27;;;;;;;3.93;2.93;;;10.80;99.90;;;;;;5118332;28;20446;-65
2023/10/29 01:04:54;;;;;;;4.73;2.67;;;10.80;99.90;;;;;;5118878;28;20461;-66
2023/10/29 01:07:20;;;;;;;3.30;2.53;;;10.90;99.90;;;;;;5118774;28;20939;-66
2023/10/29 01:09:47;;;;;;;3.03;2.40;;;10.90;99.90;;;;;;5118669;28;20441;-66
2023/10/29 01:12:17;;;;;;;3.07;2.70;;;10.90;99.90;;;;;;5117971;28;20461;-66
2023/10/29 01:14:44;;;;;;;3.83;2.93;;;11.00;99.90;;;;;;5119357;28;20463;-64
2023/10/29 01:17:13;;;;;;;4.63;2.40;;;11.00;99.90;;;;;;5118770;28;20547;-66
2023/10/29 01:19:39;;;;;;;2.70;2.50;;;11.00;99.90;;;;;;5118388;28;20437;-66
2023/10/29 01:22:06;;;;;;;3.23;2.50;;;11.00;99.90;;;;;;5118478;28;20454;-66
2023/10/29 01:24:34;;;;;;;3.03;2.30;;;11.00;99.90;;;;;;5118242;28;20475;-66
2023/10/29 01:27:03;;;;;;;2.93;2.57;;;11.00;99.90;;;;;;5118612;28;20438;-65
2023/10/29 01:29:30;;;;;;;8.47;2.60;;;11.00;99.90;;;;;;5118715;28;20811;-65
2023/10/29 01:31:57;;;;;;;2.73;2.30;;;11.10;99.90;;;;;;5118371;28;20441;-65
2023/10/29 01:34:25;;;;;;;4.93;2.07;;;11.10;99.90;;;;;;5117904;28;20453;-66
2023/10/29 01:36:51;;;;;;;2.40;2.20;;;11.10;99.90;;;;;;5118037;28;20437;-64
2023/10/29 01:39:18;;;;;;;3.13;1.83;;;11.10;99.90;;;;;;5117525;28;20437;-65
2023/10/29 01:41:45;;;;;;;3.70;2.50;;;11.10;99.90;;;;;;5118384;28;20437;-65
2023/10/29 01:44:12;;;;;;;2.93;2.00;;;11.20;99.90;;;;;;5117532;28;20457;-65
2023/10/29 01:46:38;;;;;;;3.33;2.50;;;11.20;99.90;;;;;;5118240;28;20453;-66
2023/10/29 01:49:09;;;;;;;2.10;1.90;;;11.20;99.90;;;;;;5120448;28;20429;-66
2023/10/29 01:51:37;;;;;;;3.17;1.80;;;11.20;99.90;;;;;;5128862;28;20444;-66
2023/10/29 01:54:04;;;;;;;2.70;2.13;;;11.20;99.90;;;;;;5124598;28;20492;-66
2023/10/29 01:56:31;;;;;;;4.03;1.90;;;11.20;99.90;;;;;;5124642;28;20477;-66
2023/10/29 01:58:58;;;;;;;2.13;1.93;;;11.20;99.90;;;;;;5125450;28;20484;-66
2023/10/29 02:01:25;;;;;;;3.20;1.90;;;11.20;99.90;;;;;;5125110;28;20446;-65
2023/10/29 02:03:52;;;;;;;2.40;2.03;;;11.20;99.90;;;;;;5119446;28;20966;-66
2023/10/29 02:06:19;;;;;;;4.97;2.30;;;11.20;99.90;;;;;;5119053;28;20453;-65
2023/10/29 02:08:47;;;;;;;3.13;2.30;;;11.30;99.90;;;;;;5118306;28;20440;-66
2023/10/29 02:11:15;;;;;;;3.60;1.97;;;11.20;99.90;;;;;;5118111;28;20462;-65
2023/10/29 02:13:42;;;;;;;2.87;1.90;;;11.30;99.90;;;;;;5119078;28;20448;-65
2023/10/29 02:16:08;;;;;;;2.67;1.60;;;11.30;99.90;;;;;;5118352;28;20441;-65
2023/10/29 02:18:36;;;;;;;5.17;2.23;;;11.30;99.90;;;;;;5117522;28;20990;-64
2023/10/29 02:21:02;;;;;;;2.60;1.83;;;11.30;99.90;;;;;;5117448;28;20515;-65
2023/10/29 02:23:30;;;;;;;3.40;1.90;;;11.30;99.90;;;;;;5117278;28;20437;-65
2023/10/29 02:25:57;;;;;;;1.67;1.53;;;11.40;99.90;;;;;;5117738;28;20465;-65
2023/10/29 02:28:24;;;;;;;6.50;2.10;;;11.40;99.90;;;;;;5116905;28;20465;-65
2023/10/29 02:30:51;;;;;;;2.93;1.77;;;11.40;99.90;;;;;;5116877;28;20464;-66
2023/10/29 02:33:18;;;;;;;3.23;2.23;;;11.40;99.90;;;;;;5115834;28;20491;-64
2023/10/29 02:35:46;;;;;;;1.97;1.87;;;11.40;99.90;;;;;;5115575;28;20481;-66
2023/10/29 02:38:14;;;;;;;2.60;1.63;;;11.50;99.90;;;;;;5115854;28;20473;-66
2023/10/29 02:40:42;;;;;;;1.63;1.53;;;11.50;99.90;;;;;;5116603;28;20445;-64
2023/10/29 02:43:10;;;;;;;2.70;2.43;;;11.50;99.90;;;;;;5115402;28;20441;-65
2023/10/29 02:45:37;;;;;;;1.97;1.53;;;11.50;99.90;;;;;;5115982;28;20465;-65
2023/10/29 02:48:04;;;;;;;2.30;2.20;;;11.50;99.90;;;;;;5116169;28;20433;-66
2023/10/29 02:50:30;;;;;;;1.90;1.70;;;11.50;99.90;;;;;;5115342;28;20434;-65
2023/10/29 02:52:57;;;;;;;2.03;1.63;;;11.50;99.90;;;;;;5115576;28;20437;-66
2023/10/29 02:55:24;;;;;;;2.50;1.43;;;11.50;99.90;;;;;;5115481;28;20458;-66
2023/10/29 02:57:52;;;;;;;1.70;1.60;;;11.50;99.90;;;;;;5115084;28;20470;-65
2023/10/29 03:00:19;;;;;;;2.00;1.70;;;11.50;99.90;;;;;;5115737;28;20441;-65
2023/10/29 03:02:46;;;;;;;3.60;1.50;;;11.50;99.90;;;;;;5115263;28;20441;-66
2023/10/29 03:05:13;;;;;;;1.53;1.40;;;11.60;99.90;;;;;;5115017;28;20556;-65
2023/10/29 03:07:40;;;;;;;3.23;1.73;;;11.60;99.90;;;;;;5115100;28;20429;-67
2023/10/29 03:10:07;;;;;;;4.00;1.93;;;11.60;99.90;;;;;;5115304;28;20442;-65
2023/10/29 03:12:34;;;;;;;3.30;1.60;;;11.60;99.90;;;;;;5115597;28;20472;-65
2023/10/29 03:15:02;;;;;;;3.30;1.70;;;11.60;99.90;;;;;;5115065;28;20464;-66
2023/10/29 03:17:29;;;;;;;2.33;1.43;;;11.60;99.90;;;;;;5114799;28;20449;-65
2023/10/29 03:19:56;;;;;;;1.43;1.10;;;11.60;99.90;;;;;;5115461;28;20453;-65
2023/10/29 03:22:22;;;;;;;1.60;1.40;;;11.70;99.90;;;;;;5115306;28;20438;-66
2023/10/29 03:24:49;;;;;;;2.90;2.37;;;11.60;99.90;;;;;;5114444;28;20462;-65
2023/10/29 03:27:16;;;;;;;2.03;1.13;;;11.60;99.90;;;;;;5114693;28;20433;-66
2023/10/29 03:29:43;;;;;;;1.10;1.00;;;11.60;99.90;;;;;;5115099;28;20453;-66
2023/10/29 03:32:11;;;;;;;1.70;1.60;;;11.50;99.90;;;;;;5114869;28;20437;-66
2023/10/29 03:34:37;;;;;;;1.33;1.23;;;11.50;99.90;;;;;;5114725;28;20468;-65
2023/10/29 03:37:05;;;;;;;3.90;1.40;;;11.50;99.90;;;;;;5114808;28;20445;-66
2023/10/29 03:39:31;;;;;;;2.67;1.53;;;11.50;99.90;;;;;;5114578;28;20937;-66
2023/10/29 03:41:58;;;;;;;1.97;1.40;;;11.50;99.90;;;;;;5114616;28;20448;-66
2023/10/29 03:44:25;;;;;;;3.83;1.40;;;11.50;99.90;;;;;;5114735;28;20453;-66
2023/10/29 03:46:52;;;;;;;1.50;1.40;;;11.50;99.90;;;;;;5115030;28;20438;-66
2023/10/29 03:49:20;;;;;;;3.07;1.53;;;11.60;99.90;;;;;;5114218;28;20438;-67
2023/10/29 03:51:48;;;;;;;3.80;1.53;;;11.60;99.90;;;;;;5114363;28;20939;-66
2023/10/29 03:54:15;;;;;;;2.07;1.60;;;11.60;99.90;;;;;;5114846;28;20580;-66
2023/10/29 03:56:41;;;;;;;1.97;1.30;;;11.60;99.90;;;;;;5116014;28;20446;-65
2023/10/29 03:59:09;;;;;;;4.30;1.97;;;11.60;99.90;;;;;;5117048;28;20473;-64
2023/10/29 04:01:36;;;;;;;1.90;1.30;;;11.60;99.90;;;;;;5115702;28;20464;-65
2023/10/29 04:04:04;;;;;;;2.50;1.13;;;11.60;99.90;;;;;;5115234;28;20468;-65
2023/10/29 04:06:32;;;;;;;3.80;1.30;;;11.70;99.90;;;;;;5117198;28;20438;-66
2023/10/29 04:12:28;;;;;;;4.37;1.70;;;11.70;99.90;;;;;;5092856;27;20641;-64
2023/10/29 04:14:54;;;;;;;3.07;1.57;;;11.70;99.90;;;;;;5093888;28;20496;-65
2023/10/29 04:17:21;;;;;;;2.63;1.60;;;11.70;99.90;;;;;;5093110;28;20798;-65
2023/10/29 04:19:48;;;;;;;2.27;1.40;;;11.80;99.90;;;;;;5092549;28;20975;-64
2023/10/29 04:22:15;;;;;;;1.30;1.13;;;11.80;99.90;;;;;;5093058;28;20951;-64
2023/10/29 04:24:42;;;;;;;5.10;1.40;;;11.80;99.90;;;;;;5093094;28;20459;-65
2023/10/29 04:27:09;;;;;;;1.50;1.40;;;11.90;99.90;;;;;;5093192;28;20435;-65
2023/10/29 04:29:37;;;;;;;1.90;1.40;;;11.90;99.90;;;;;;5092228;28;20435;-65
2023/10/29 04:32:04;;;;;;;2.60;1.20;;;11.90;99.90;;;;;;5091800;28;20474;-64
2023/10/29 04:34:31;;;;;;;2.43;1.73;;;11.90;99.90;;;;;;5090936;28;20841;-66
2023/10/29 04:36:57;;;;;;;1.93;1.30;;;11.90;99.90;;;;;;5092387;28;20449;-64
2023/10/29 04:39:24;;;;;;;1.97;1.30;;;12.00;99.90;;;;;;5094029;28;20445;-64
2023/10/29 04:41:51;;;;;;;3.17;1.10;;;12.00;99.90;;;;;;5093943;28;20470;-64
2023/10/29 04:44:18;;;;;;;1.57;1.00;;;12.00;99.90;;;;;;5093752;28;20469;-63
2023/10/29 04:46:46;;;;;;;1.67;1.27;;;12.00;99.90;;;;;;5093520;28;20443;-64
2023/10/29 04:49:13;;;;;;;2.30;1.33;;;12.00;99.90;;;;;;5092763;28;20434;-64
2023/10/29 04:51:39;;;;;;;1.33;1.23;;;12.00;99.90;;;;;;5091021;28;20485;-64
2023/10/29 04:54:07;;;;;;;1.97;1.00;;;12.00;99.90;;;;;;5092205;28;20824;-65
2023/10/29 04:56:34;;;;;;;2.10;1.10;;;12.00;99.90;;;;;;5091304;28;20451;-65
2023/10/29 04:59:00;;;;;;;1.73;1.27;;;12.10;99.90;;;;;;5092175;28;20435;-64
2023/10/29 05:01:27;;;;;;;3.07;1.50;;;12.10;99.90;;;;;;5110474;22;20492;-64
2023/10/29 05:03:55;;;;;;;2.37;1.40;;;12.10;99.90;;;;;;5050021;28;20452;-66
2023/10/29 05:06:22;;;;;;;1.93;1.27;;;12.10;99.90;;;;;;5049668;28;20494;-64
2023/10/29 05:08:50;;;;;;;2.17;1.00;;;12.10;99.90;;;;;;5049721;28;20444;-66
2023/10/29 05:11:17;;;;;;;2.83;1.37;;;12.10;99.90;;;;;;5049261;28;20484;-65
2023/10/29 05:13:43;;;;;;;1.67;1.23;;;12.10;99.90;;;;;;5049890;28;20437;-64
2023/10/29 05:16:11;;;;;;;1.10;1.00;;;12.10;99.90;;;;;;5049363;28;20466;-66
2023/10/29 05:18:38;;;;;;;3.93;1.53;;;12.20;99.90;;;;;;5049253;28;20456;-66
2023/10/29 05:21:07;;;;;;;2.50;1.27;;;12.20;99.90;;;;;;5049289;28;20452;-66
2023/10/29 05:23:35;;;;;;;1.87;1.30;;;12.20;99.90;;;;;;5036890;28;20448;-65
2023/10/29 05:26:02;;;;;;;2.03;1.20;;;12.20;99.90;;;;;;5036296;28;20441;-66
2023/10/29 05:28:28;;;;;;;1.90;1.27;;;12.20;99.90;;;;;;5036229;28;20449;-65
2023/10/29 05:30:55;;;;;;;1.87;1.23;;;12.20;99.90;;;;;;5035996;28;20481;-65
2023/10/29 05:33:22;;;;;;;5.33;1.40;;;12.30;99.90;;;;;;5037203;28;20445;-65
2023/10/29 05:35:48;;;;;;;2.90;1.50;;;12.20;99.90;;;;;;5046181;28;20946;-65
2023/10/29 05:38:17;;;;;;;1.57;1.23;;;12.20;99.90;;;;;;5046925;28;20935;-66
2023/10/29 05:40:43;;;;;;;2.70;1.40;;;12.10;99.90;;;;;;5046765;28;20446;-64
2023/10/29 05:43:10;;;;;;;4.03;1.63;;;12.10;99.90;;;;;;5038137;28;20452;-64
2023/10/29 05:45:37;;;;;;;2.30;1.00;;;12.10;99.90;;;;;;5039124;28;20453;-63
2023/10/29 05:48:04;;;;;;;2.33;1.10;;;12.10;99.90;;;;;;5036581;28;20449;-64
2023/10/29 05:50:31;;;;;;;2.83;1.20;;;12.10;99.90;;;;;;5035381;28;20445;-65
2023/10/29 05:52:58;;;;;;;1.67;1.13;;;12.10;99.90;;;;;;5035520;28;20527;-66
2023/10/29 05:55:26;;;;;;;4.00;1.37;;;12.10;99.90;;;;;;5035538;28;20958;-66
2023/10/29 05:57:53;;;;;;;2.10;1.20;;;12.10;99.90;;;;;;5035213;28;20786;-66
2023/10/29 06:00:20;;;;;;;2.30;1.30;;;12.10;99.90;;;;;;5034909;28;20499;-66
2023/10/29 06:02:47;;;;;;;1.50;1.30;;;12.10;99.90;;;;;;5034479;28;20522;-65
2023/10/29 06:05:13;;;;;;;1.20;0.93;;;12.10;99.90;;;;;;5035306;28;20453;-66
2023/10/29 06:07:43;;;;;;;4.13;1.37;;;12.20;99.90;;;;;;5035477;28;20456;-64
2023/10/29 06:10:12;;;;;;;1.70;1.20;;;12.20;99.90;;;;;;5035307;28;20449;-65
2023/10/29 06:12:41;;;;;;;3.00;1.40;;;12.30;99.90;;;;;;5034646;28;20842;-65
2023/10/29 06:15:10;;;;;;;2.83;1.30;;;12.40;99.90;;;;;;5035165;28;20441;-65
2023/10/29 06:17:37;;;;;;;2.40;1.40;;;12.40;99.90;;;;;;5034889;28;20441;-66
2023/10/29 06:20:05;;;;;;;1.10;1.00;;;12.40;99.90;;;;;;5034863;28;20533;-66
2023/10/29 06:22:32;;;;;;;2.57;1.40;;;12.50;99.90;;;;;;5034786;28;20468;-64
2023/10/29 06:24:58;;;;;;;3.30;1.70;;;12.50;99.90;;;;;;5034920;28;20761;-65
2023/10/29 06:27:25;;;;;;;2.40;1.10;;;12.50;99.90;;;;;;5035212;28;20478;-65
2023/10/29 06:29:53;;;;;;;1.57;0.93;;;12.50;99.90;;;;;;5034440;28;20867;-65
2023/10/29 06:32:20;;;;;;;2.53;1.13;;;12.50;99.90;;;;;;5034533;28;20480;-64
2023/10/29 06:34:47;;;;;;;1.53;1.33;;;12.50;99.90;;;;;;5033511;28;20495;-64
2023/10/29 06:37:14;;;;;;;1.77;1.10;;;12.50;99.90;;;;;;5034344;28;20455;-64
2023/10/29 06:39:41;;;;;;;1.93;1.23;;;12.50;99.90;;;;;;5034511;28;20436;-64
2023/10/29 06:42:07;;;;;;;3.33;2.00;;;12.60;99.90;;;;;;5034505;28;20998;-64
2023/10/29 06:44:34;;;;;;;2.40;0.97;;;12.60;99.90;;;;;;5034406;28;20519;-64
2023/10/29 06:47:03;;;;;;;2.33;1.40;;;12.60;99.90;;;;;;5034562;28;20441;-64
2023/10/29 06:49:29;;;;;;;1.00;0.90;;;12.60;99.90;;;;;;5033957;28;20456;-63
2023/10/29 06:51:56;;;;;;;1.57;1.10;;;12.60;99.90;;;;;;5034786;28;20485;-63
2023/10/29 06:54:24;;;;;;;1.53;1.10;;;12.60;99.90;;;;;;5033973;28;20869;-65
2023/10/29 06:56:51;;;;;;;2.27;1.30;;;12.60;99.90;;;;;;5034197;28;20445;-65
2023/10/29 06:59:18;;;;;;;1.83;1.20;;;12.60;99.90;;;;;;5034291;28;20445;-64
2023/10/29 07:01:46;;;;;;;1.23;1.13;;;12.60;99.90;;;;;;5033621;28;20512;-64
2023/10/29 07:04:14;;;;;;;2.13;1.20;;;12.60;99.90;;;;;;5033883;28;20453;-65
2023/10/29 07:06:41;;;;;;;1.13;1.03;;;12.70;99.90;;;;;;5033517;28;20476;-64
2023/10/29 07:09:08;;;;;;;2.47;1.73;;;12.70;99.90;;;;;;5033719;28;20445;-65
2023/10/29 07:11:36;;;;;;;2.00;1.43;;;12.70;99.90;;;;;;5033836;28;20503;-65
2023/10/29 07:14:03;;;;;;;2.17;1.30;;;12.70;99.90;;;;;;5033528;28;20943;-64
2023/10/29 07:16:30;;;;;;;2.37;1.13;;;12.70;99.90;;;;;;5034297;28;20445;-66
2023/10/29 07:18:57;;;;;;;1.60;1.50;;;12.80;99.90;;;;;;5033801;28;20785;-65
2023/10/29 07:21:26;;;;;;;2.97;1.20;;;12.80;99.90;;;;;;5033827;28;20464;-64
2023/10/29 07:23:53;;;;;;;3.03;1.50;;;12.80;99.90;;;;;;5034066;28;20525;-65
2023/10/29 07:26:20;;;;;;;1.90;1.20;;;12.80;99.90;;;;;;5033665;28;20946;-65
2023/10/29 07:28:47;;;;;;;4.60;1.43;;;12.90;99.90;;;;;;5033609;28;20436;-66
2023/10/29 07:31:14;;;;;;;1.23;1.00;;;12.90;99.90;;;;;;5033537;28;20469;-66
2023/10/29 07:33:41;;;;;;;1.60;1.37;;;13.00;99.90;;;;;;5033707;28;20448;-65
2023/10/29 07:36:08;;;;;;;1.90;1.30;;;13.00;99.90;;;;;;5033063;28;20453;-64
2023/10/29 07:38:36;;;;;;;2.10;1.00;;;13.10;99.90;;;;;;5033523;28;20437;-66
2023/10/29 07:41:03;;;;;;;1.40;1.03;;;13.10;99.90;;;;;;5033223;28;20464;-66
2023/10/29 07:43:29;;;;;;;1.80;1.10;;;13.10;99.90;;;;;;5033445;28;20445;-65
2023/10/29 07:46:02;;;;;;;1.60;1.00;;;13.20;99.90;;;;;;5033120;28;20453;-64
2023/10/29 07:48:29;;;;;;;1.40;1.30;;;13.20;99.90;;;;;;5033655;28;20433;-66
2023/10/29 07:50:56;;;;;;;1.93;1.30;;;13.20;99.90;;;;;;5033209;28;20449;-65
2023/10/29 07:53:23;;;;;;;2.13;1.10;;;13.20;99.90;;;;;;5033642;28;20477;-66
2023/10/29 07:55:51;;;;;;;4.60;1.47;;;13.20;99.90;;;;;;5034167;28;20441;-66
2023/10/29 07:58:18;;;;;;;1.50;1.00;;;13.20;99.90;;;;;;5033811;28;20442;-67
2023/10/29 08:00:44;;;;;;;1.87;1.47;;;13.20;99.90;;;;;;5033724;28;20445;-67
2023/10/29 08:03:11;;;;;;;1.70;1.50;;;13.20;99.90;;;;;;5036099;28;20469;-67
2023/10/29 08:05:38;;;;;;;3.07;1.43;;;13.20;99.90;;;;;;5035726;28;20947;-67
2023/10/29 08:08:05;;;;;;;2.23;1.80;;;13.20;99.90;;;;;;5035975;28;20437;-65
2023/10/29 08:10:32;;;;;;;3.43;1.50;;;13.20;99.90;;;;;;5039182;28;20472;-67
2023/10/29 08:13:03;;;;;;;2.43;1.53;;;13.30;99.90;;;;;;5043741;28;21008;-65
2023/10/29 08:15:30;;;;;;;3.10;1.60;;;13.30;99.90;;;;;;5043938;28;20433;-65
2023/10/29 08:17:57;;;;;;;1.67;1.00;;;13.30;99.90;;;;;;5047287;28;20434;-65
2023/10/29 08:20:23;;;;;;;4.20;1.33;;;13.40;99.90;;;;;;5045035;28;20500;-66
2023/10/29 08:22:50;;;;;;;4.50;2.00;;;13.40;99.90;;;;;;5044776;28;20461;-66
2023/10/29 08:25:17;;;;;;;1.73;1.30;;;13.40;99.90;;;;;;5037833;28;20460;-66
2023/10/29 08:27:43;;;;;;;2.63;1.37;;;13.50;99.90;;;;;;5033073;28;20445;-65
2023/10/29 08:30:13;;;;;;;1.27;1.07;;;13.50;99.90;;;;;;5033009;28;20448;-65
2023/10/29 08:32:40;;;;;;;1.70;1.50;;;13.60;99.90;;;;;;5032896;28;20488;-64
2023/10/29 08:35:08;;;;;;;3.00;1.30;;;13.60;99.90;;;;;;5033113;28;20548;-66
2023/10/29 08:37:35;;;;;;;5.50;1.33;;;13.70;99.90;;;;;;5032863;28;20452;-65
2023/10/29 08:40:01;;;;;;;4.73;1.30;;;13.70;99.90;;;;;;5032841;28;20491;-66
2023/10/29 08:42:29;;;;;;;4.33;1.50;;;13.70;99.90;;;;;;5033225;28;20461;-66
2023/10/29 08:44:57;;;;;;;2.80;1.17;;;13.80;99.90;;;;;;5033639;28;20452;-65
2023/10/29 08:47:25;;;;;;;2.40;1.23;;;13.90;99.90;;;;;;5033093;28;20441;-66
2023/10/29 08:49:53;;;;;;;3.20;1.63;;;13.90;99.90;;;;;;5033075;28;20452;-66
2023/10/29 08:52:20;;;;;;;2.63;1.40;;;13.90;99.90;;;;;;5032764;28;20484;-65
2023/10/29 08:54:47;;;;;;;2.40;1.27;;;14.00;99.90;;;;;;5033167;28;20935;-66
2023/10/29 08:57:14;;;;;;;2.40;1.37;;;14.10;99.90;;;;;;5033542;28;20455;-65
2023/10/29 08:59:41;;;;;;;2.80;1.80;;;14.20;99.90;;;;;;5036936;28;20451;-66
2023/10/29 09:02:08;;;;;;;2.40;1.40;;;14.30;99.90;;;;;;5036544;28;20468;-65
2023/10/29 09:04:38;;;;;;;2.43;1.43;;;14.20;99.90;;;;;;5036696;28;20943;-65
2023/10/29 09:07:05;;;;;;;1.80;1.30;;;14.30;99.90;;;;;;5036847;28;20836;-66
2023/10/29 09:09:32;;;;;;;1.77;1.07;;;14.30;99.90;;;;;;5036589;28;20481;-65
2023/10/29 09:11:59;;;;;;;2.70;1.30;;;14.30;99.90;;;;;;5036310;28;20530;-65
2023/10/29 09:14:26;;;;;;;1.70;1.10;;;14.40;99.90;;;;;;5036246;28;20449;-65
2023/10/29 09:16:52;;;;;;;1.43;1.03;;;14.60;99.90;;;;;;5036179;28;20445;-65
2023/10/29 09:19:20;;;;;;;2.40;1.33;;;14.80;99.90;;;;;;5036206;28;20437;-64
2023/10/29 09:21:48;;;;;;;3.23;1.20;;;15.00;99.90;;;;;;5036521;28;20477;-66
2023/10/29 09:24:15;;;;;;;4.10;1.00;;;15.30;99.90;;;;;;5036574;28;20441;-66
2023/10/29 09:26:42;;;;;;;3.40;1.50;;;15.50;99.90;;;;;;5036603;28;20938;-65
2023/10/29 09:29:09;;;;;;;3.83;1.40;;;15.70;99.90;;;;;;5036998;28;20441;-65
2023/10/29 09:31:36;;;;;;;2.40;1.03;;;15.90;99.90;;;;;;5038371;28;20467;-65
2023/10/29 09:34:04;;;;;;;4.07;0.90;;;16.10;99.90;;;;;;5037693;28;20934;-65
2023/10/29 09:36:30;;;;;;;2.77;0.90;;;16.10;99.90;;;;;;5040338;28;20536;-66
2023/10/29 09:38:59;;;;;;;1.67;0.90;;;16.20;99.90;;;;;;5037381;28;20923;-65
2023/10/29 09:41:25;;;;;;;1.17;0.77;;;16.20;99.90;;;;;;5037030;28;20469;-65
2023/10/29 09:43:54;;;;;;;1.00;0.83;;;16.30;99.90;;;;;;5035466;28;20445;-64
2023/10/29 09:46:21;;;;;;;1.50;1.10;;;16.30;99.90;;;;;;5035427;28;20443;-65
2023/10/29 09:48:50;;;;;;;1.60;1.37;;;16.30;99.90;;;;;;5035389;28;20548;-65
2023/10/29 09:51:17;;;;;;;1.97;0.90;;;16.30;99.90;;;;;;5035418;28;20475;-66
2023/10/29 09:53:45;;;;;;;1.43;1.17;;;16.30;99.90;;;;;;5035477;28;20484;-65
2023/10/29 09:56:13;;;;;;;1.70;1.07;;;16.30;99.90;;;;;;5035530;28;20448;-66
2023/10/29 09:58:40;;;;;;;5.40;0.67;;;16.30;99.90;;;;;;5035471;28;20499;-65
2023/10/29 10:01:08;;;;;;;1.23;1.00;;;16.30;99.90;;;;;;5035687;28;20472;-65
2023/10/29 10:03:35;;;;;;;5.50;1.10;;;16.30;99.90;;;;;;5035911;28;20440;-65
2023/10/29 10:06:02;;;;;;;1.10;0.90;;;16.30;99.90;;;;;;5035500;28;20506;-65
2023/10/29 10:08:32;;;;;;;1.43;0.90;;;16.30;99.90;;;;;;5035107;28;20520;-66
2023/10/29 10:11:01;;;;;;;1.43;0.93;;;16.20;99.90;;;;;;5035262;28;20537;-65
2023/10/29 10:13:41;;;;;;;2.20;1.00;;;16.30;99.90;;;;;;5035717;28;20473;-66
2023/10/29 10:16:10;;;;;;;1.67;1.27;;;16.40;99.90;;;;;;5036115;28;20483;-66
2023/10/29 10:18:51;;;;;;;1.40;0.97;;;16.40;99.90;;;;;;5035029;28;20544;-66
2023/10/29 10:21:20;;;;;;;2.60;1.00;;;16.50;99.90;;;;;;5034741;28;20468;-66
2023/10/29 10:23:48;;;;;;;3.23;1.50;;;16.50;99.90;;;;;;5034389;28;20441;-65
2023/10/29 10:26:18;;;;;;;2.33;0.90;;;16.50;99.90;;;;;;5035256;28;20480;-66
2023/10/29 10:28:55;;;;;;;3.17;1.23;;;16.50;99.90;;;;;;5034688;28;20487;-67
2023/10/29 10:31:22;;;;;;;5.33;1.47;;;16.50;99.90;;;;;;5034758;28;20453;-67
2023/10/29 10:33:49;;;;;;;1.43;1.07;;;16.50;99.90;;;;;;5034733;28;20547;-66
2023/10/29 10:36:30;;;;;;;1.00;0.70;;;16.50;99.90;;;;;;5034372;28;20437;-66
2023/10/29 10:38:57;;;;;;;1.50;0.73;;;16.50;99.90;;;;;;5035441;28;20433;-65
2023/10/29 10:41:23;;;;;;;2.43;0.67;;;16.40;99.90;;;;;;5035304;28;20539;-66
2023/10/29 10:44:04;;;;;;;1.00;0.80;;;16.40;99.90;;;;;;5034945;28;20467;-67
2023/10/29 10:46:34;;;;;;;1.73;1.00;;;16.40;99.90;;;;;;5042992;28;20417;-67
2023/10/29 10:49:02;;;;;;;2.27;0.90;;;16.40;99.90;;;;;;5045221;28;20532;-67
2023/10/29 10:51:31;;;;;;;1.10;0.67;;;16.50;99.90;;;;;;5047814;28;20465;-68
2023/10/29 10:54:02;;;;;;;2.00;0.77;;;16.60;99.90;;;;;;5048938;28;20476;-67
2023/10/29 10:56:31;;;;;;;2.83;1.27;;;16.60;99.90;;;;;;5047703;28;20429;-67
2023/10/29 10:58:59;;;;;;;2.37;1.20;;;16.70;99.90;;;;;;5046936;28;20452;-65
2023/10/29 11:01:28;;;;;;;1.43;0.60;;;16.70;99.90;;;;;;5045138;28;20500;-66
2023/10/29 11:03:57;;;;;;;2.00;1.40;;;16.70;99.90;;;;;;5034869;28;20467;-66
2023/10/29 11:06:24;;;;;;;1.80;1.37;;;16.70;99.90;;;;;;5034493;28;20448;-67
2023/10/29 11:08:51;;;;;;;4.10;0.90;;;16.70;99.90;;;;;;5034161;28;20448;-67
2023/10/29 11:11:18;;;;;;;2.53;0.90;;;16.80;99.90;;;;;;5034256;28;20468;-67
2023/10/29 11:13:45;;;;;;;1.47;0.70;;;16.80;99.90;;;;;;5034256;28;20493;-69
2023/10/29 11:16:22;;;;;;;3.87;1.00;;;16.80;99.90;;;;;;5034233;28;20445;-67
2023/10/29 11:18:50;;;;;;;2.47;1.00;;;16.70;99.90;;;;;;5033987;28;20425;-67
2023/10/29 11:21:31;;;;;;;1.30;1.00;;;16.80;99.90;;;;;;5033812;28;20461;-66
2023/10/29 11:24:17;;;;;;;3.07;1.10;;;16.80;99.90;;;;;;5033955;28;20524;-67
2023/10/29 11:26:44;;;;;;;2.33;0.80;;;16.90;99.90;;;;;;5033958;28;20459;-67
2023/10/29 11:29:41;;;;;;;0.83;0.73;;;16.90;99.90;;;;;;5033909;28;20474;-67
2023/10/29 11:32:23;;;;;;;2.00;0.93;;;16.90;99.90;;;;;;5033793;28;20548;-67
2023/10/29 11:35:19;;;;;;;1.37;1.03;;;16.90;99.90;;;;;;5033843;28;20853;-66
2023/10/29 11:37:46;;;;;;;2.10;1.00;;;16.90;99.90;;;;;;5034045;28;20550;-67
2023/10/29 11:40:33;;;;;;;1.77;0.70;;;17.00;99.90;;;;;;5033548;28;20445;-67
2023/10/29 11:43:21;;;;;;;1.80;0.90;;;17.00;99.90;;;;;;5033260;28;20536;-66
2023/10/29 11:46:08;;;;;;;1.10;0.90;;;16.90;99.90;;;;;;5033391;28;20815;-67
2023/10/29 11:48:35;;;;;;;1.83;1.17;;;16.90;99.90;;;;;;5029232;28;20857;-68
2023/10/29 11:51:22;;;;;;;3.57;0.70;;;17.00;99.90;;;;;;5033622;28;20836;-67
2023/10/29 11:53:49;;;;;;;2.83;1.00;;;17.10;99.90;;;;;;5033531;28;20476;-67
2023/10/29 11:56:18;;;;;;;1.20;0.70;;;17.10;99.90;;;;;;5033485;28;20441;-66
2023/10/29 11:58:45;;;;;;;3.03;1.63;;;17.20;99.90;;;;;;5033388;28;20459;-66
2023/10/29 12:01:17;;;;;;;2.00;1.00;;;17.10;99.90;;;;;;5033102;28;20480;-67
2023/10/29 12:03:51;;;;;;;2.23;1.00;;;17.10;99.90;;;;;;5034362;28;20495;-66
2023/10/29 12:06:17;;;;;;;3.30;0.90;;;17.00;99.90;;;;;;5034095;28;20429;-67
2023/10/29 12:08:46;;;;;;;1.40;0.80;;;17.00;99.90;;;;;;5033302;28;20451;-67
2023/10/29 12:11:13;;;;;;;2.97;0.90;;;17.10;99.90;;;;;;5033163;28;20465;-66
2023/10/29 12:13:44;;;;;;;1.80;1.03;;;17.00;99.90;;;;;;5033078;28;21020;-65
2023/10/29 12:16:12;;;;;;;1.40;1.23;;;17.10;99.90;;;;;;5033558;28;20814;-66
2023/10/29 12:18:40;;;;;;;1.20;1.00;;;17.10;99.90;;;;;;5033050;28;20469;-67
2023/10/29 12:21:08;;;;;;;2.77;1.00;;;17.10;99.90;;;;;;5032499;28;21044;-66
2023/10/29 12:23:36;;;;;;;1.00;0.80;;;17.10;99.90;;;;;;5033991;28;20982;-67
2023/10/29 12:26:06;;;;;;;1.73;1.00;;;17.10;99.90;;;;;;5033050;28;20794;-67
2023/10/29 12:28:34;;;;;;;1.17;0.90;;;17.10;99.90;;;;;;5032761;28;20904;-67
2023/10/29 12:31:01;;;;;;;2.57;1.30;;;17.00;99.90;;;;;;5032722;28;20830;-67
2023/10/29 12:33:31;;;;;;;1.03;0.60;;;17.10;99.90;;;;;;5035510;28;20484;-69
2023/10/29 12:35:59;;;;;;;2.80;0.97;;;17.10;99.90;;;;;;5037692;28;20437;-67
2023/10/29 12:38:27;;;;;;;1.97;1.10;;;17.10;99.90;;;;;;5038804;28;20452;-68
2023/10/29 12:41:11;;;;;;;1.73;0.93;;;17.10;99.90;;;;;;5041223;28;20445;-69
2023/10/29 12:43:39;;;;;;;1.57;0.93;;;17.10;99.90;;;;;;5036652;28;20424;-67
2023/10/29 12:46:07;;;;;;;1.67;1.10;;;17.10;99.90;;;;;;5036694;28;20495;-67
2023/10/29 12:48:35;;;;;;;2.00;0.90;;;17.00;99.90;;;;;;5036563;28;20445;-67
2023/10/29 12:51:02;;;;;;;1.20;0.90;;;16.90;99.90;;;;;;5036480;28;20469;-67
2023/10/29 12:53:30;;;;;;;2.33;0.70;;;16.80;99.90;;;;;;5036477;28;20477;-68
2023/10/29 12:55:58;;;;;;;1.53;0.97;;;16.80;99.90;;;;;;5036707;28;20809;-67